sensor_id;sensor_type;location;lat;lon;timestamp;P1;durP1;ratioP1;P2;durP2;ratioP2
11245;SDS011;59870;50.106;8.580;2023-02-15T00:01:23;48.43;;;28.60;;
11245;SDS011;59870;50.106;8.580;2023-02-15T00:03:54;44.37;;;28.73;;
11245;SDS011;59870;50.106;8.580;2023-02-15T00:06:22;43.53;;;29.40;;
11245;SDS011;59870;50.106;8.580;2023-02-15T00:08:51;44.70;;;30.47;;
11245;SDS011;59870;50.106;8.580;2023-02-15T00:11:19;47.87;;;32.60;;
11245;SDS011;59870;50.106;8.580;2023-02-15T00:17:31;46.83;;;31.53;;
11245;SDS011;59870;50.106;8.580;2023-02-15T00:19:59;48.40;;;31.63;;
11245;SDS011;59870;50.106;8.580;2023-02-15T00:22:27;51.90;;;32.77;;
11245;SDS011;59870;50.106;8.580;2023-02-15T00:24:58;50.13;;;32.87;;
11245;SDS011;59870;50.106;8.580;2023-02-15T00:27:26;46.07;;;30.93;;
11245;SDS011;59870;50.106;8.580;2023-02-15T00:29:55;42.30;;;30.07;;
11245;SDS011;59870;50.106;8.580;2023-02-15T00:32:23;47.30;;;30.03;;
11245;SDS011;59870;50.106;8.580;2023-02-15T00:34:51;43.40;;;28.17;;
11245;SDS011;59870;50.106;8.580;2023-02-15T00:37:20;46.13;;;30.37;;
11245;SDS011;59870;50.106;8.580;2023-02-15T00:39:48;42.60;;;28.07;;
11245;SDS011;59870;50.106;8.580;2023-02-15T00:42:17;48.47;;;28.70;;
11245;SDS011;59870;50.106;8.580;2023-02-15T00:44:45;41.17;;;27.60;;
11245;SDS011;59870;50.106;8.580;2023-02-15T00:47:14;42.10;;;30.00;;
11245;SDS011;59870;50.106;8.580;2023-02-15T00:49:42;40.80;;;28.27;;
11245;SDS011;59870;50.106;8.580;2023-02-15T00:52:12;42.57;;;29.43;;
11245;SDS011;59870;50.106;8.580;2023-02-15T00:54:41;45.70;;;29.93;;
11245;SDS011;59870;50.106;8.580;2023-02-15T00:57:14;44.07;;;29.90;;
11245;SDS011;59870;50.106;8.580;2023-02-15T00:59:42;40.03;;;28.80;;
11245;SDS011;59870;50.106;8.580;2023-02-15T01:02:10;44.57;;;29.07;;
11245;SDS011;59870;50.106;8.580;2023-02-15T01:07:48;38.00;;;27.80;;
11245;SDS011;59870;50.106;8.580;2023-02-15T01:15:10;41.20;;;30.10;;
11245;SDS011;59870;50.106;8.580;2023-02-15T01:17:40;44.20;;;29.90;;
11245;SDS011;59870;50.106;8.580;2023-02-15T01:20:13;41.30;;;29.57;;
11245;SDS011;59870;50.106;8.580;2023-02-15T01:22:43;38.67;;;29.00;;
11245;SDS011;59870;50.106;8.580;2023-02-15T01:26:03;43.03;;;29.73;;
11245;SDS011;59870;50.106;8.580;2023-02-15T01:35:46;41.40;;;28.57;;
11245;SDS011;59870;50.106;8.580;2023-02-15T01:38:15;42.40;;;29.43;;
11245;SDS011;59870;50.106;8.580;2023-02-15T01:40:46;45.10;;;29.27;;
11245;SDS011;59870;50.106;8.580;2023-02-15T01:43:14;41.47;;;28.37;;
11245;SDS011;59870;50.106;8.580;2023-02-15T01:45:42;44.87;;;30.37;;
11245;SDS011;59870;50.106;8.580;2023-02-15T01:48:20;43.93;;;30.67;;
11245;SDS011;59870;50.106;8.580;2023-02-15T01:55:05;42.70;;;28.87;;
11245;SDS011;59870;50.106;8.580;2023-02-15T01:57:35;42.63;;;28.67;;
11245;SDS011;59870;50.106;8.580;2023-02-15T02:00:04;42.43;;;28.43;;
11245;SDS011;59870;50.106;8.580;2023-02-15T02:02:41;42.23;;;28.93;;
11245;SDS011;59870;50.106;8.580;2023-02-15T02:05:14;44.50;;;30.93;;
11245;SDS011;59870;50.106;8.580;2023-02-15T02:07:44;45.13;;;30.97;;
11245;SDS011;59870;50.106;8.580;2023-02-15T02:10:15;43.03;;;31.17;;
11245;SDS011;59870;50.106;8.580;2023-02-15T02:12:45;44.03;;;31.13;;
11245;SDS011;59870;50.106;8.580;2023-02-15T02:15:16;47.83;;;29.83;;
11245;SDS011;59870;50.106;8.580;2023-02-15T02:17:54;42.17;;;30.90;;
11245;SDS011;59870;50.106;8.580;2023-02-15T02:20:49;48.70;;;34.03;;
11245;SDS011;59870;50.106;8.580;2023-02-15T02:26:30;50.13;;;32.30;;
11245;SDS011;59870;50.106;8.580;2023-02-15T02:29:26;46.40;;;32.10;;
11245;SDS011;59870;50.106;8.580;2023-02-15T02:35:39;52.43;;;32.87;;
11245;SDS011;59870;50.106;8.580;2023-02-15T02:41:24;49.27;;;32.50;;
11245;SDS011;59870;50.106;8.580;2023-02-15T02:47:01;44.07;;;31.23;;
11245;SDS011;59870;50.106;8.580;2023-02-15T02:53:58;45.63;;;31.07;;
11245;SDS011;59870;50.106;8.580;2023-02-15T02:56:43;42.03;;;32.10;;
11245;SDS011;59870;50.106;8.580;2023-02-15T02:59:21;48.17;;;33.93;;
11245;SDS011;59870;50.106;8.580;2023-02-15T03:01:56;51.50;;;32.77;;
11245;SDS011;59870;50.106;8.580;2023-02-15T03:04:41;47.67;;;31.33;;
11245;SDS011;59870;50.106;8.580;2023-02-15T03:07:16;49.23;;;33.60;;
11245;SDS011;59870;50.106;8.580;2023-02-15T03:09:54;51.87;;;33.97;;
11245;SDS011;59870;50.106;8.580;2023-02-15T03:12:30;44.97;;;32.80;;
11245;SDS011;59870;50.106;8.580;2023-02-15T03:18:11;51.67;;;34.50;;
11245;SDS011;59870;50.106;8.580;2023-02-15T03:20:40;50.03;;;33.50;;
11245;SDS011;59870;50.106;8.580;2023-02-15T03:23:16;46.27;;;31.73;;
11245;SDS011;59870;50.106;8.580;2023-02-15T03:25:52;46.33;;;33.03;;
11245;SDS011;59870;50.106;8.580;2023-02-15T03:29:55;47.13;;;31.50;;
11245;SDS011;59870;50.106;8.580;2023-02-15T03:33:55;46.13;;;30.83;;
11245;SDS011;59870;50.106;8.580;2023-02-15T03:38:18;49.50;;;32.13;;
11245;SDS011;59870;50.106;8.580;2023-02-15T03:47:02;48.03;;;32.37;;
11245;SDS011;59870;50.106;8.580;2023-02-15T03:49:51;49.33;;;32.03;;
11245;SDS011;59870;50.106;8.580;2023-02-15T03:52:27;49.90;;;33.40;;
11245;SDS011;59870;50.106;8.580;2023-02-15T03:54:57;48.07;;;32.33;;
11245;SDS011;59870;50.106;8.580;2023-02-15T03:57:35;49.70;;;33.87;;
11245;SDS011;59870;50.106;8.580;2023-02-15T04:00:30;50.30;;;33.00;;
11245;SDS011;59870;50.106;8.580;2023-02-15T04:03:39;45.57;;;30.43;;
11245;SDS011;59870;50.106;8.580;2023-02-15T04:06:10;53.60;;;33.17;;
11245;SDS011;59870;50.106;8.580;2023-02-15T04:08:39;49.87;;;33.40;;
11245;SDS011;59870;50.106;8.580;2023-02-15T04:16:07;49.63;;;33.03;;
11245;SDS011;59870;50.106;8.580;2023-02-15T04:20:44;50.27;;;31.87;;
11245;SDS011;59870;50.106;8.580;2023-02-15T04:37:03;49.80;;;30.93;;
11245;SDS011;59870;50.106;8.580;2023-02-15T04:39:31;52.37;;;30.60;;
11245;SDS011;59870;50.106;8.580;2023-02-15T04:41:59;46.80;;;31.60;;
11245;SDS011;59870;50.106;8.580;2023-02-15T04:54:23;50.37;;;31.93;;
11245;SDS011;59870;50.106;8.580;2023-02-15T04:56:52;45.67;;;29.37;;
11245;SDS011;59870;50.106;8.580;2023-02-15T04:59:51;50.03;;;30.80;;
11245;SDS011;59870;50.106;8.580;2023-02-15T05:02:49;48.60;;;29.07;;
11245;SDS011;59870;50.106;8.580;2023-02-15T05:05:20;57.47;;;31.33;;
11245;SDS011;59870;50.106;8.580;2023-02-15T05:07:49;51.50;;;29.83;;
11245;SDS011;59870;50.106;8.580;2023-02-15T05:10:19;49.83;;;30.63;;
11245;SDS011;59870;50.106;8.580;2023-02-15T05:12:49;53.53;;;31.20;;
11245;SDS011;59870;50.106;8.580;2023-02-15T05:19:14;52.83;;;30.57;;
11245;SDS011;59870;50.106;8.580;2023-02-15T05:22:10;51.73;;;30.47;;
11245;SDS011;59870;50.106;8.580;2023-02-15T05:28:10;55.43;;;32.37;;
11245;SDS011;59870;50.106;8.580;2023-02-15T05:34:08;51.10;;;30.80;;
11245;SDS011;59870;50.106;8.580;2023-02-15T05:36:39;49.83;;;32.60;;
11245;SDS011;59870;50.106;8.580;2023-02-15T05:39:07;51.33;;;31.20;;
11245;SDS011;59870;50.106;8.580;2023-02-15T05:41:35;49.50;;;30.03;;
11245;SDS011;59870;50.106;8.580;2023-02-15T05:44:04;52.73;;;30.83;;
11245;SDS011;59870;50.106;8.580;2023-02-15T05:46:32;52.20;;;31.60;;
11245;SDS011;59870;50.106;8.580;2023-02-15T05:49:00;51.23;;;31.17;;
11245;SDS011;59870;50.106;8.580;2023-02-15T05:51:28;52.83;;;31.30;;
11245;SDS011;59870;50.106;8.580;2023-02-15T05:53:56;54.30;;;32.77;;
11245;SDS011;59870;50.106;8.580;2023-02-15T05:56:24;56.77;;;31.90;;
11245;SDS011;59870;50.106;8.580;2023-02-15T05:58:52;50.63;;;31.73;;
11245;SDS011;59870;50.106;8.580;2023-02-15T06:01:22;55.37;;;33.20;;
11245;SDS011;59870;50.106;8.580;2023-02-15T06:03:50;52.67;;;30.03;;
11245;SDS011;59870;50.106;8.580;2023-02-15T06:06:19;48.67;;;30.27;;
11245;SDS011;59870;50.106;8.580;2023-02-15T06:08:47;47.53;;;30.07;;
11245;SDS011;59870;50.106;8.580;2023-02-15T06:11:16;52.23;;;30.77;;
11245;SDS011;59870;50.106;8.580;2023-02-15T06:13:44;48.93;;;32.63;;
11245;SDS011;59870;50.106;8.580;2023-02-15T06:16:15;50.40;;;31.13;;
11245;SDS011;59870;50.106;8.580;2023-02-15T06:18:43;49.47;;;29.83;;
11245;SDS011;59870;50.106;8.580;2023-02-15T06:21:10;51.73;;;30.73;;
11245;SDS011;59870;50.106;8.580;2023-02-15T06:23:39;51.33;;;31.53;;
11245;SDS011;59870;50.106;8.580;2023-02-15T06:32:31;48.60;;;30.50;;
11245;SDS011;59870;50.106;8.580;2023-02-15T06:41:16;50.80;;;30.10;;
11245;SDS011;59870;50.106;8.580;2023-02-15T06:43:43;56.10;;;31.70;;
11245;SDS011;59870;50.106;8.580;2023-02-15T06:46:11;51.13;;;30.97;;
11245;SDS011;59870;50.106;8.580;2023-02-15T06:48:38;45.27;;;29.20;;
11245;SDS011;59870;50.106;8.580;2023-02-15T06:51:07;49.30;;;29.40;;
11245;SDS011;59870;50.106;8.580;2023-02-15T06:53:34;47.70;;;28.50;;
11245;SDS011;59870;50.106;8.580;2023-02-15T06:56:03;44.73;;;29.27;;
11245;SDS011;59870;50.106;8.580;2023-02-15T06:58:33;46.47;;;28.30;;
11245;SDS011;59870;50.106;8.580;2023-02-15T07:01:00;45.93;;;30.03;;
11245;SDS011;59870;50.106;8.580;2023-02-15T07:03:28;45.97;;;31.67;;
11245;SDS011;59870;50.106;8.580;2023-02-15T07:05:56;47.17;;;30.47;;
11245;SDS011;59870;50.106;8.580;2023-02-15T07:08:24;52.30;;;31.03;;
11245;SDS011;59870;50.106;8.580;2023-02-15T07:10:53;51.57;;;31.37;;
11245;SDS011;59870;50.106;8.580;2023-02-15T07:13:21;57.27;;;33.43;;
11245;SDS011;59870;50.106;8.580;2023-02-15T07:19:16;53.70;;;31.40;;
11245;SDS011;59870;50.106;8.580;2023-02-15T07:24:38;46.67;;;27.47;;
11245;SDS011;59870;50.106;8.580;2023-02-15T07:27:07;38.37;;;26.13;;
11245;SDS011;59870;50.106;8.580;2023-02-15T07:29:37;40.23;;;27.63;;
11245;SDS011;59870;50.106;8.580;2023-02-15T07:32:04;41.90;;;26.13;;
11245;SDS011;59870;50.106;8.580;2023-02-15T07:37:30;38.43;;;24.73;;
11245;SDS011;59870;50.106;8.580;2023-02-15T07:39:58;36.00;;;24.83;;
11245;SDS011;59870;50.106;8.580;2023-02-15T07:42:25;33.03;;;24.00;;
11245;SDS011;59870;50.106;8.580;2023-02-15T07:44:53;31.50;;;22.07;;
11245;SDS011;59870;50.106;8.580;2023-02-15T07:47:20;34.67;;;24.07;;
11245;SDS011;59870;50.106;8.580;2023-02-15T07:49:48;32.20;;;21.90;;
11245;SDS011;59870;50.106;8.580;2023-02-15T07:52:16;33.50;;;23.20;;
11245;SDS011;59870;50.106;8.580;2023-02-15T07:54:43;28.77;;;22.17;;
11245;SDS011;59870;50.106;8.580;2023-02-15T07:57:11;27.87;;;20.83;;
11245;SDS011;59870;50.106;8.580;2023-02-15T07:59:38;29.33;;;21.37;;
11245;SDS011;59870;50.106;8.580;2023-02-15T08:02:15;23.27;;;19.10;;
11245;SDS011;59870;50.106;8.580;2023-02-15T08:04:44;26.27;;;20.03;;
11245;SDS011;59870;50.106;8.580;2023-02-15T08:07:12;22.33;;;18.43;;
11245;SDS011;59870;50.106;8.580;2023-02-15T08:09:40;32.47;;;20.20;;
11245;SDS011;59870;50.106;8.580;2023-02-15T08:12:08;32.53;;;21.13;;
11245;SDS011;59870;50.106;8.580;2023-02-15T08:14:36;30.33;;;21.20;;
11245;SDS011;59870;50.106;8.580;2023-02-15T08:17:03;27.63;;;20.93;;
11245;SDS011;59870;50.106;8.580;2023-02-15T08:19:32;23.70;;;19.43;;
11245;SDS011;59870;50.106;8.580;2023-02-15T08:24:34;22.17;;;18.80;;
11245;SDS011;59870;50.106;8.580;2023-02-15T08:27:06;29.20;;;19.70;;
11245;SDS011;59870;50.106;8.580;2023-02-15T08:29:36;24.70;;;19.00;;
11245;SDS011;59870;50.106;8.580;2023-02-15T08:32:08;24.33;;;18.97;;
11245;SDS011;59870;50.106;8.580;2023-02-15T08:34:39;23.53;;;17.83;;
11245;SDS011;59870;50.106;8.580;2023-02-15T08:37:08;22.70;;;18.27;;
11245;SDS011;59870;50.106;8.580;2023-02-15T08:39:36;23.53;;;18.50;;
11245;SDS011;59870;50.106;8.580;2023-02-15T08:42:03;24.83;;;17.27;;
11245;SDS011;59870;50.106;8.580;2023-02-15T08:44:31;21.10;;;16.80;;
11245;SDS011;59870;50.106;8.580;2023-02-15T08:47:02;23.17;;;18.67;;
11245;SDS011;59870;50.106;8.580;2023-02-15T08:49:30;21.73;;;18.17;;
11245;SDS011;59870;50.106;8.580;2023-02-15T08:51:58;24.43;;;18.50;;
11245;SDS011;59870;50.106;8.580;2023-02-15T08:54:26;25.63;;;19.63;;
11245;SDS011;59870;50.106;8.580;2023-02-15T08:56:53;24.03;;;18.37;;
11245;SDS011;59870;50.106;8.580;2023-02-15T08:59:21;23.27;;;19.27;;
11245;SDS011;59870;50.106;8.580;2023-02-15T09:01:51;25.77;;;20.20;;
11245;SDS011;59870;50.106;8.580;2023-02-15T09:04:19;23.83;;;19.43;;
11245;SDS011;59870;50.106;8.580;2023-02-15T09:09:25;25.37;;;21.27;;
11245;SDS011;59870;50.106;8.580;2023-02-15T09:16:28;28.77;;;20.87;;
11245;SDS011;59870;50.106;8.580;2023-02-15T09:23:29;29.20;;;20.67;;
11245;SDS011;59870;50.106;8.580;2023-02-15T09:26:01;23.13;;;19.67;;
11245;SDS011;59870;50.106;8.580;2023-02-15T09:28:33;24.83;;;19.20;;
11245;SDS011;59870;50.106;8.580;2023-02-15T09:31:09;25.80;;;20.03;;
11245;SDS011;59870;50.106;8.580;2023-02-15T09:33:43;25.43;;;20.10;;
11245;SDS011;59870;50.106;8.580;2023-02-15T09:36:16;26.80;;;20.50;;
11245;SDS011;59870;50.106;8.580;2023-02-15T09:38:54;24.90;;;20.00;;
11245;SDS011;59870;50.106;8.580;2023-02-15T09:52:21;29.57;;;20.73;;
11245;SDS011;59870;50.106;8.580;2023-02-15T09:58:35;26.20;;;21.23;;
11245;SDS011;59870;50.106;8.580;2023-02-15T10:06:05;28.33;;;22.57;;
11245;SDS011;59870;50.106;8.580;2023-02-15T10:08:51;30.57;;;21.93;;
11245;SDS011;59870;50.106;8.580;2023-02-15T10:11:28;29.77;;;23.17;;
11245;SDS011;59870;50.106;8.580;2023-02-15T10:17:17;29.67;;;21.80;;
11245;SDS011;59870;50.106;8.580;2023-02-15T10:20:46;29.27;;;21.87;;
11245;SDS011;59870;50.106;8.580;2023-02-15T10:22:51;25.17;;;20.60;;
11245;SDS011;59870;50.106;8.580;2023-02-15T10:26:21;28.90;;;21.53;;
11245;SDS011;59870;50.106;8.580;2023-02-15T10:31:22;28.57;;;21.73;;
11245;SDS011;59870;50.106;8.580;2023-02-15T10:34:01;28.87;;;19.67;;
11245;SDS011;59870;50.106;8.580;2023-02-15T10:48:50;25.57;;;19.97;;
11245;SDS011;59870;50.106;8.580;2023-02-15T10:51:45;24.57;;;17.87;;
11245;SDS011;59870;50.106;8.580;2023-02-15T10:54:36;23.67;;;18.20;;
11245;SDS011;59870;50.106;8.580;2023-02-15T11:08:53;23.40;;;17.77;;
11245;SDS011;59870;50.106;8.580;2023-02-15T11:11:27;21.97;;;16.93;;
11245;SDS011;59870;50.106;8.580;2023-02-15T11:14:00;24.90;;;19.23;;
11245;SDS011;59870;50.106;8.580;2023-02-15T11:16:34;23.60;;;17.23;;
11245;SDS011;59870;50.106;8.580;2023-02-15T11:19:11;20.43;;;16.97;;
11245;SDS011;59870;50.106;8.580;2023-02-15T11:21:49;25.73;;;18.20;;
11245;SDS011;59870;50.106;8.580;2023-02-15T11:24:20;24.70;;;18.73;;
11245;SDS011;59870;50.106;8.580;2023-02-15T11:27:00;25.57;;;18.60;;
11245;SDS011;59870;50.106;8.580;2023-02-15T11:29:33;25.20;;;18.60;;
11245;SDS011;59870;50.106;8.580;2023-02-15T11:32:22;22.67;;;18.67;;
11245;SDS011;59870;50.106;8.580;2023-02-15T11:35:03;24.60;;;18.63;;
11245;SDS011;59870;50.106;8.580;2023-02-15T11:43:37;28.30;;;20.17;;
11245;SDS011;59870;50.106;8.580;2023-02-15T11:46:15;31.27;;;21.53;;
11245;SDS011;59870;50.106;8.580;2023-02-15T11:48:45;32.27;;;21.67;;
11245;SDS011;59870;50.106;8.580;2023-02-15T11:51:14;35.17;;;23.47;;
11245;SDS011;59870;50.106;8.580;2023-02-15T11:53:45;39.53;;;25.37;;
11245;SDS011;59870;50.106;8.580;2023-02-15T11:59:48;37.83;;;26.83;;
11245;SDS011;59870;50.106;8.580;2023-02-15T12:17:13;47.93;;;29.43;;
11245;SDS011;59870;50.106;8.580;2023-02-15T12:19:40;44.67;;;30.50;;
11245;SDS011;59870;50.106;8.580;2023-02-15T12:31:54;51.13;;;31.87;;
11245;SDS011;59870;50.106;8.580;2023-02-15T12:34:10;51.37;;;33.70;;
11245;SDS011;59870;50.106;8.580;2023-02-15T12:36:43;48.27;;;31.67;;
11245;SDS011;59870;50.106;8.580;2023-02-15T13:02:05;56.40;;;36.37;;
11245;SDS011;59870;50.106;8.580;2023-02-15T13:24:00;52.83;;;35.50;;
11245;SDS011;59870;50.106;8.580;2023-02-15T13:29:43;57.63;;;36.03;;
11245;SDS011;59870;50.106;8.580;2023-02-15T13:32:24;58.87;;;37.93;;
11245;SDS011;59870;50.106;8.580;2023-02-15T13:35:05;59.27;;;36.63;;
11245;SDS011;59870;50.106;8.580;2023-02-15T13:40:41;57.13;;;35.47;;
11245;SDS011;59870;50.106;8.580;2023-02-15T13:52:21;51.73;;;33.83;;
11245;SDS011;59870;50.106;8.580;2023-02-15T13:55:07;53.80;;;35.67;;
11245;SDS011;59870;50.106;8.580;2023-02-15T14:05:30;56.67;;;34.33;;
11245;SDS011;59870;50.106;8.580;2023-02-15T14:08:11;54.10;;;35.80;;
11245;SDS011;59870;50.106;8.580;2023-02-15T14:19:35;56.83;;;36.30;;
11245;SDS011;59870;50.106;8.580;2023-02-15T14:27:54;58.00;;;36.70;;
11245;SDS011;59870;50.106;8.580;2023-02-15T14:30:33;56.10;;;35.77;;
11245;SDS011;59870;50.106;8.580;2023-02-15T14:35:45;56.43;;;36.30;;
11245;SDS011;59870;50.106;8.580;2023-02-15T14:38:21;54.70;;;36.17;;
11245;SDS011;59870;50.106;8.580;2023-02-15T14:41:16;52.30;;;35.83;;
11245;SDS011;59870;50.106;8.580;2023-02-15T14:47:10;55.53;;;35.40;;
11245;SDS011;59870;50.106;8.580;2023-02-15T14:50:23;61.00;;;36.97;;
11245;SDS011;59870;50.106;8.580;2023-02-15T14:56:32;52.93;;;34.30;;
11245;SDS011;59870;50.106;8.580;2023-02-15T15:02:09;56.43;;;34.97;;
11245;SDS011;59870;50.106;8.580;2023-02-15T15:06:20;56.60;;;36.87;;
11245;SDS011;59870;50.106;8.580;2023-02-15T15:09:09;55.10;;;37.13;;
11245;SDS011;59870;50.106;8.580;2023-02-15T15:14:36;51.07;;;34.97;;
11245;SDS011;59870;50.106;8.580;2023-02-15T15:16:59;54.33;;;35.20;;
11245;SDS011;59870;50.106;8.580;2023-02-15T15:22:18;55.87;;;36.77;;
11245;SDS011;59870;50.106;8.580;2023-02-15T15:24:55;60.67;;;36.17;;
11245;SDS011;59870;50.106;8.580;2023-02-15T15:38:22;57.37;;;38.23;;
11245;SDS011;59870;50.106;8.580;2023-02-15T15:46:40;64.20;;;40.57;;
11245;SDS011;59870;50.106;8.580;2023-02-15T15:49:24;63.73;;;37.87;;
11245;SDS011;59870;50.106;8.580;2023-02-15T15:52:01;68.47;;;41.93;;
11245;SDS011;59870;50.106;8.580;2023-02-15T15:54:35;65.60;;;39.50;;
11245;SDS011;59870;50.106;8.580;2023-02-15T15:57:11;64.90;;;39.80;;
11245;SDS011;59870;50.106;8.580;2023-02-15T15:59:46;61.43;;;39.83;;
11245;SDS011;59870;50.106;8.580;2023-02-15T16:02:18;64.30;;;41.73;;
11245;SDS011;59870;50.106;8.580;2023-02-15T16:04:46;64.23;;;40.53;;
11245;SDS011;59870;50.106;8.580;2023-02-15T16:13:15;71.37;;;42.80;;
11245;SDS011;59870;50.106;8.580;2023-02-15T16:15:45;67.10;;;42.53;;
11245;SDS011;59870;50.106;8.580;2023-02-15T16:18:23;70.50;;;45.43;;
11245;SDS011;59870;50.106;8.580;2023-02-15T16:29:34;72.87;;;45.40;;
11245;SDS011;59870;50.106;8.580;2023-02-15T16:32:03;69.33;;;46.67;;
11245;SDS011;59870;50.106;8.580;2023-02-15T16:34:33;72.07;;;45.80;;
11245;SDS011;59870;50.106;8.580;2023-02-15T16:37:19;74.90;;;47.13;;
11245;SDS011;59870;50.106;8.580;2023-02-15T16:39:53;76.87;;;48.23;;
11245;SDS011;59870;50.106;8.580;2023-02-15T16:42:22;82.27;;;50.07;;
11245;SDS011;59870;50.106;8.580;2023-02-15T16:47:40;74.30;;;47.37;;
11245;SDS011;59870;50.106;8.580;2023-02-15T16:50:17;77.37;;;46.13;;
11245;SDS011;59870;50.106;8.580;2023-02-15T16:53:03;75.80;;;47.63;;
11245;SDS011;59870;50.106;8.580;2023-02-15T16:55:38;66.73;;;45.30;;
11245;SDS011;59870;50.106;8.580;2023-02-15T16:58:12;64.40;;;42.50;;
11245;SDS011;59870;50.106;8.580;2023-02-15T17:00:42;67.33;;;44.73;;
11245;SDS011;59870;50.106;8.580;2023-02-15T17:05:48;58.30;;;41.13;;
11245;SDS011;59870;50.106;8.580;2023-02-15T17:08:29;58.87;;;40.83;;
11245;SDS011;59870;50.106;8.580;2023-02-15T17:19:10;66.70;;;44.17;;
11245;SDS011;59870;50.106;8.580;2023-02-15T17:21:45;74.73;;;46.87;;
11245;SDS011;59870;50.106;8.580;2023-02-15T17:24:20;74.67;;;48.43;;
11245;SDS011;59870;50.106;8.580;2023-02-15T17:27:05;72.67;;;46.07;;
11245;SDS011;59870;50.106;8.580;2023-02-15T17:29:44;79.70;;;50.17;;
11245;SDS011;59870;50.106;8.580;2023-02-15T17:32:22;79.37;;;48.60;;
11245;SDS011;59870;50.106;8.580;2023-02-15T17:37:46;83.73;;;51.93;;
11245;SDS011;59870;50.106;8.580;2023-02-15T17:42:53;83.13;;;51.30;;
11245;SDS011;59870;50.106;8.580;2023-02-15T17:45:21;73.60;;;49.07;;
11245;SDS011;59870;50.106;8.580;2023-02-15T17:47:51;68.73;;;45.50;;
11245;SDS011;59870;50.106;8.580;2023-02-15T17:50:20;60.63;;;43.03;;
11245;SDS011;59870;50.106;8.580;2023-02-15T17:52:50;52.30;;;36.17;;
11245;SDS011;59870;50.106;8.580;2023-02-15T17:55:19;51.73;;;35.83;;
11245;SDS011;59870;50.106;8.580;2023-02-15T17:58:09;45.50;;;34.23;;
11245;SDS011;59870;50.106;8.580;2023-02-15T18:00:42;45.27;;;32.83;;
11245;SDS011;59870;50.106;8.580;2023-02-15T18:03:37;46.63;;;34.13;;
11245;SDS011;59870;50.106;8.580;2023-02-15T18:06:36;41.60;;;32.27;;
11245;SDS011;59870;50.106;8.580;2023-02-15T18:16:31;50.23;;;35.03;;
11245;SDS011;59870;50.106;8.580;2023-02-15T18:25:16;47.20;;;33.37;;
11245;SDS011;59870;50.106;8.580;2023-02-15T18:27:49;53.40;;;36.67;;
11245;SDS011;59870;50.106;8.580;2023-02-15T18:30:22;50.27;;;35.87;;
11245;SDS011;59870;50.106;8.580;2023-02-15T18:32:59;48.60;;;34.87;;
11245;SDS011;59870;50.106;8.580;2023-02-15T18:36:25;42.37;;;32.80;;
11245;SDS011;59870;50.106;8.580;2023-02-15T18:38:55;46.20;;;33.07;;
11245;SDS011;59870;50.106;8.580;2023-02-15T18:41:23;45.03;;;33.50;;
11245;SDS011;59870;50.106;8.580;2023-02-15T18:43:52;49.07;;;34.27;;
11245;SDS011;59870;50.106;8.580;2023-02-15T18:46:21;50.23;;;33.40;;
11245;SDS011;59870;50.106;8.580;2023-02-15T18:51:41;49.47;;;34.30;;
11245;SDS011;59870;50.106;8.580;2023-02-15T18:54:16;50.33;;;34.23;;
11245;SDS011;59870;50.106;8.580;2023-02-15T18:56:48;53.40;;;36.33;;
11245;SDS011;59870;50.106;8.580;2023-02-15T18:59:21;52.40;;;37.50;;
11245;SDS011;59870;50.106;8.580;2023-02-15T19:05:14;61.80;;;41.57;;
11245;SDS011;59870;50.106;8.580;2023-02-15T19:07:44;67.63;;;43.67;;
11245;SDS011;59870;50.106;8.580;2023-02-15T19:10:15;58.13;;;40.77;;
11245;SDS011;59870;50.106;8.580;2023-02-15T19:12:45;63.43;;;41.17;;
11245;SDS011;59870;50.106;8.580;2023-02-15T19:15:17;63.10;;;44.10;;
11245;SDS011;59870;50.106;8.580;2023-02-15T19:17:50;64.33;;;42.63;;
11245;SDS011;59870;50.106;8.580;2023-02-15T19:20:22;71.00;;;44.07;;
11245;SDS011;59870;50.106;8.580;2023-02-15T19:22:54;65.63;;;43.33;;
11245;SDS011;59870;50.106;8.580;2023-02-15T19:39:47;69.80;;;43.57;;
11245;SDS011;59870;50.106;8.580;2023-02-15T19:51:45;66.07;;;44.57;;
11245;SDS011;59870;50.106;8.580;2023-02-15T19:58:59;72.10;;;44.00;;
11245;SDS011;59870;50.106;8.580;2023-02-15T20:35:11;63.10;;;41.77;;
11245;SDS011;59870;50.106;8.580;2023-02-15T20:42:38;74.00;;;42.00;;
11245;SDS011;59870;50.106;8.580;2023-02-15T20:46:36;75.57;;;43.03;;
11245;SDS011;59870;50.106;8.580;2023-02-15T20:51:00;76.50;;;42.70;;
11245;SDS011;59870;50.106;8.580;2023-02-15T21:06:01;79.23;;;44.43;;
11245;SDS011;59870;50.106;8.580;2023-02-15T21:08:29;80.20;;;44.43;;
11245;SDS011;59870;50.106;8.580;2023-02-15T21:10:58;78.67;;;44.17;;
11245;SDS011;59870;50.106;8.580;2023-02-15T21:13:31;86.33;;;47.43;;
11245;SDS011;59870;50.106;8.580;2023-02-15T21:16:03;77.93;;;44.87;;
11245;SDS011;59870;50.106;8.580;2023-02-15T21:18:32;78.00;;;45.50;;
11245;SDS011;59870;50.106;8.580;2023-02-15T21:24:14;78.87;;;45.57;;
11245;SDS011;59870;50.106;8.580;2023-02-15T21:26:46;67.37;;;41.93;;
11245;SDS011;59870;50.106;8.580;2023-02-15T21:29:17;71.80;;;42.63;;
11245;SDS011;59870;50.106;8.580;2023-02-15T21:31:47;73.10;;;44.60;;
11245;SDS011;59870;50.106;8.580;2023-02-15T21:34:15;78.23;;;45.40;;
11245;SDS011;59870;50.106;8.580;2023-02-15T21:37:26;74.53;;;45.00;;
11245;SDS011;59870;50.106;8.580;2023-02-15T21:43:14;70.60;;;41.43;;
11245;SDS011;59870;50.106;8.580;2023-02-15T21:46:12;68.77;;;41.97;;
11245;SDS011;59870;50.106;8.580;2023-02-15T21:49:03;69.17;;;41.57;;
11245;SDS011;59870;50.106;8.580;2023-02-15T21:51:33;72.97;;;41.47;;
11245;SDS011;59870;50.106;8.580;2023-02-15T21:54:24;73.10;;;40.50;;
11245;SDS011;59870;50.106;8.580;2023-02-15T21:56:52;64.07;;;40.40;;
11245;SDS011;59870;50.106;8.580;2023-02-15T21:59:19;72.70;;;40.80;;
11245;SDS011;59870;50.106;8.580;2023-02-15T22:01:47;68.33;;;40.57;;
11245;SDS011;59870;50.106;8.580;2023-02-15T22:04:21;58.30;;;37.70;;
11245;SDS011;59870;50.106;8.580;2023-02-15T22:06:52;69.23;;;41.60;;
11245;SDS011;59870;50.106;8.580;2023-02-15T22:09:21;73.20;;;43.00;;
11245;SDS011;59870;50.106;8.580;2023-02-15T22:11:50;75.93;;;41.80;;
11245;SDS011;59870;50.106;8.580;2023-02-15T22:17:15;69.93;;;42.40;;
11245;SDS011;59870;50.106;8.580;2023-02-15T22:19:51;72.37;;;41.53;;
11245;SDS011;59870;50.106;8.580;2023-02-15T22:22:18;76.53;;;43.23;;
11245;SDS011;59870;50.106;8.580;2023-02-15T22:24:46;76.77;;;43.40;;
11245;SDS011;59870;50.106;8.580;2023-02-15T22:27:20;67.43;;;41.23;;
11245;SDS011;59870;50.106;8.580;2023-02-15T22:29:51;77.13;;;43.60;;
11245;SDS011;59870;50.106;8.580;2023-02-15T22:32:21;78.10;;;43.67;;
11245;SDS011;59870;50.106;8.580;2023-02-15T22:34:52;67.83;;;40.23;;
11245;SDS011;59870;50.106;8.580;2023-02-15T22:37:20;77.33;;;41.87;;
11245;SDS011;59870;50.106;8.580;2023-02-15T22:39:47;84.57;;;44.90;;
11245;SDS011;59870;50.106;8.580;2023-02-15T22:42:19;81.87;;;44.20;;
11245;SDS011;59870;50.106;8.580;2023-02-15T22:44:51;84.90;;;45.27;;
11245;SDS011;59870;50.106;8.580;2023-02-15T22:47:21;86.83;;;44.97;;
11245;SDS011;59870;50.106;8.580;2023-02-15T22:49:50;87.70;;;46.87;;
11245;SDS011;59870;50.106;8.580;2023-02-15T22:52:17;78.50;;;44.27;;
11245;SDS011;59870;50.106;8.580;2023-02-15T22:54:45;81.23;;;45.20;;